Time,TemperatureF,DewpointF,PressureIn,WindDirection,WindDirectionDegrees,WindSpeedMPH,WindSpeedGustMPH,Humidity,HourlyPrecipIn,Conditions,Clouds,dailyrainin,SoftwareType,DateUTC
2013-03-06 00:11:00,36.5,21.0,30.19,West,270,0.0,-999.0,53,-99.99,,,0.00,Acu-Link.com,2013-03-06 06:11:00,
2013-03-06 00:26:00,33.8,21.0,30.20,West,270,0.0,-999.0,59,-99.99,,,0.00,Acu-Link.com,2013-03-06 06:26:00,
2013-03-06 00:41:00,33.3,20.9,30.20,West,270,0.0,-999.0,60,-99.99,,,0.00,Acu-Link.com,2013-03-06 06:41:00,
2013-03-06 00:56:00,32.5,21.4,30.20,West,270,0.0,-999.0,63,-99.99,,,0.00,Acu-Link.com,2013-03-06 06:56:00,
2013-03-06 01:12:00,31.8,21.8,30.21,West,270,0.0,-999.0,66,-99.99,,,0.00,Acu-Link.com,2013-03-06 07:12:00,
2013-03-06 01:27:00,32.0,21.9,30.21,South,180,0.0,-999.0,66,-99.99,,,0.00,Acu-Link.com,2013-03-06 07:27:00,
2013-03-06 01:42:00,31.5,22.1,30.21,South,180,0.0,-999.0,68,-99.99,,,0.00,Acu-Link.com,2013-03-06 07:42:00,
2013-03-06 01:57:00,31.6,22.3,30.22,SSW,202,0.0,-999.0,68,-99.99,,,0.00,Acu-Link.com,2013-03-06 07:57:00,
2013-03-06 02:12:00,30.9,22.3,30.22,SSE,157,0.0,-999.0,70,-99.99,,,0.00,Acu-Link.com,2013-03-06 08:12:00,
2013-03-06 02:28:00,30.0,22.4,30.21,NW,315,0.0,-999.0,73,-99.99,,,0.00,Acu-Link.com,2013-03-06 08:28:00,
2013-03-06 02:43:00,29.8,21.6,30.20,NW,315,0.0,-999.0,71,-99.99,,,0.00,Acu-Link.com,2013-03-06 08:43:00,
2013-03-06 02:58:00,29.1,21.9,30.19,NNW,337,0.0,-999.0,74,-99.99,,,0.00,Acu-Link.com,2013-03-06 08:58:00,
2013-03-06 03:23:00,29.1,21.6,30.19,North,0,0.0,-999.0,73,-99.99,,,0.00,Acu-Link.com,2013-03-06 09:23:00,
2013-03-06 03:38:00,28.6,22.0,30.19,North,0,0.0,-999.0,76,-99.99,,,0.00,Acu-Link.com,2013-03-06 09:38:00,
2013-03-06 03:53:00,28.4,21.8,30.20,NNE,22,0.0,-999.0,76,-99.99,,,0.00,Acu-Link.com,2013-03-06 09:53:00,
2013-03-06 04:08:00,28.0,22.1,30.20,NNE,22,0.0,-999.0,78,-99.99,,,0.00,Acu-Link.com,2013-03-06 10:08:00,
2013-03-06 04:24:00,27.7,22.3,30.20,South,180,0.0,-999.0,80,-99.99,,,0.00,Acu-Link.com,2013-03-06 10:24:00,
2013-03-06 04:39:00,26.8,21.7,30.19,SSW,202,0.0,-999.0,81,-99.99,,,0.00,Acu-Link.com,2013-03-06 10:39:00,
2013-03-06 04:54:00,27.0,22.8,30.20,SSW,202,0.0,-999.0,84,-99.99,,,0.00,Acu-Link.com,2013-03-06 10:54:00,
2013-03-06 05:09:00,26.8,21.7,30.21,SSW,202,0.0,-999.0,81,-99.99,,,0.00,Acu-Link.com,2013-03-06 11:09:00,
2013-03-06 05:24:00,26.2,21.5,30.21,South,180,0.0,-999.0,82,-99.99,,,0.00,Acu-Link.com,2013-03-06 11:24:00,
2013-03-06 05:40:00,25.9,21.7,30.21,SSW,202,0.0,-999.0,84,-99.99,,,0.00,Acu-Link.com,2013-03-06 11:40:00,
2013-03-06 05:55:00,25.9,21.7,30.22,SSW,202,0.0,-999.0,84,-99.99,,,0.00,Acu-Link.com,2013-03-06 11:55:00,
2013-03-06 06:10:00,25.9,21.7,30.23,SSW,202,0.0,-999.0,84,-99.99,,,0.00,Acu-Link.com,2013-03-06 12:10:00,
2013-03-06 06:25:00,25.9,21.7,30.23,SSW,202,0.0,-999.0,84,-99.99,,,0.00,Acu-Link.com,2013-03-06 12:25:00,
2013-03-06 06:40:00,25.9,21.7,30.23,SSW,202,0.0,-999.0,84,-99.99,,,0.00,Acu-Link.com,2013-03-06 12:40:00,
2013-03-06 06:56:00,25.9,21.7,30.24,SSW,202,0.0,-999.0,84,-99.99,,,0.00,Acu-Link.com,2013-03-06 12:56:00,
2013-03-06 07:11:00,25.9,21.7,30.24,SSW,202,0.0,-999.0,84,-99.99,,,0.00,Acu-Link.com,2013-03-06 13:11:00,
2013-03-06 07:26:00,25.9,21.7,30.24,SSW,202,0.0,-999.0,84,-99.99,,,0.00,Acu-Link.com,2013-03-06 13:26:00,
2013-03-06 07:41:00,25.9,21.7,30.24,SSW,202,0.0,-999.0,84,-99.99,,,0.00,Acu-Link.com,2013-03-06 13:41:00,
2013-03-06 07:56:00,25.9,21.7,30.25,SSW,202,0.0,-999.0,84,-99.99,,,0.00,Acu-Link.com,2013-03-06 13:56:00,
2013-03-06 08:12:00,25.9,21.7,30.26,SSW,202,0.0,-999.0,84,-99.99,,,0.00,Acu-Link.com,2013-03-06 14:12:00,
2013-03-06 08:27:00,25.9,21.7,30.27,SSW,202,0.0,-999.0,84,-99.99,,,0.00,Acu-Link.com,2013-03-06 14:27:00,
2013-03-06 08:42:00,43.5,23.1,30.28,ESE,112,1.6,-999.0,44,-99.99,,,0.00,Acu-Link.com,2013-03-06 14:42:00,
2013-03-06 08:57:00,43.5,22.5,30.28,ENE,67,1.6,-999.0,43,-99.99,,,0.00,Acu-Link.com,2013-03-06 14:57:00,
2013-03-06 09:13:00,43.7,22.1,30.28,SSE,157,3.1,-999.0,42,-99.99,,,0.00,Acu-Link.com,2013-03-06 15:13:00,
2013-03-06 09:28:00,44.2,22.6,30.27,SE,135,2.7,-999.0,42,-99.99,,,0.00,Acu-Link.com,2013-03-06 15:28:00,
2013-03-06 09:58:00,46.0,21.9,30.26,ESE,112,2.2,-999.0,38,-99.99,,,0.00,Acu-Link.com,2013-03-06 15:58:00,
2013-03-06 10:13:00,47.3,23.0,30.26,SW,225,1.1,-999.0,38,-99.99,,,0.00,Acu-Link.com,2013-03-06 16:13:00,
2013-03-06 10:29:00,47.5,21.9,30.26,West,270,1.1,-999.0,36,-99.99,,,0.00,Acu-Link.com,2013-03-06 16:29:00,
2013-03-06 10:44:00,49.5,22.3,30.26,NNW,337,2.7,-999.0,34,-99.99,,,0.00,Acu-Link.com,2013-03-06 16:44:00,
2013-03-06 10:59:00,50.0,22.0,30.26,ESE,112,3.1,-999.0,33,-99.99,,,0.00,Acu-Link.com,2013-03-06 16:59:00,
2013-03-06 11:14:00,51.1,20.7,30.25,North,0,1.6,-999.0,30,-99.99,,,0.00,Acu-Link.com,2013-03-06 17:14:00,
2013-03-06 11:29:00,52.0,22.3,30.25,West,270,3.1,-999.0,31,-99.99,,,0.00,Acu-Link.com,2013-03-06 17:29:00,
2013-03-06 11:45:00,53.1,20.0,30.24,WSW,247,1.6,-999.0,27,-99.99,,,0.00,Acu-Link.com,2013-03-06 17:45:00,
2013-03-06 12:00:00,52.0,19.1,30.24,South,180,1.6,-999.0,27,-99.99,,,0.00,Acu-Link.com,2013-03-06 18:00:00,
2013-03-06 12:15:00,54.1,18.2,30.23,SE,135,2.2,-999.0,24,-99.99,,,0.00,Acu-Link.com,2013-03-06 18:15:00,
2013-03-06 12:31:00,54.1,18.2,30.23,West,270,2.2,-999.0,24,-99.99,,,0.00,Acu-Link.com,2013-03-06 18:31:00,
2013-03-06 12:46:00,56.8,20.4,30.20,West,270,2.2,-999.0,24,-99.99,,,0.00,Acu-Link.com,2013-03-06 18:46:00,
2013-03-06 13:01:00,58.3,19.6,30.20,South,180,3.1,-999.0,22,-99.99,,,0.00,Acu-Link.com,2013-03-06 19:01:00,
2013-03-06 13:17:00,57.9,20.4,30.19,WSW,247,0.0,-999.0,23,-99.99,,,0.00,Acu-Link.com,2013-03-06 19:17:00,
2013-03-06 13:32:00,57.6,17.9,30.16,West,270,1.6,-999.0,21,-99.99,,,0.00,Acu-Link.com,2013-03-06 19:32:00,
2013-03-06 13:47:00,58.6,19.9,30.15,ENE,67,2.7,-999.0,22,-99.99,,,0.00,Acu-Link.com,2013-03-06 19:47:00,
2013-03-06 14:02:00,59.0,19.1,30.14,NNW,337,3.1,-999.0,21,-99.99,,,0.00,Acu-Link.com,2013-03-06 20:02:00,
2013-03-06 14:18:00,59.9,18.7,30.13,NE,45,1.1,-999.0,20,-99.99,,,0.00,Acu-Link.com,2013-03-06 20:18:00,
2013-03-06 14:33:00,60.4,16.7,30.12,NE,45,3.1,-999.0,18,-99.99,,,0.00,Acu-Link.com,2013-03-06 20:33:00,
2013-03-06 14:48:00,59.7,14.9,30.11,WSW,247,0.0,-999.0,17,-99.99,,,0.00,Acu-Link.com,2013-03-06 20:48:00,
2013-03-06 15:03:00,60.6,15.6,30.10,SSW,202,2.7,-999.0,17,-99.99,,,0.00,Acu-Link.com,2013-03-06 21:03:00,
2013-03-06 15:18:00,60.3,13.9,30.09,South,180,1.6,-999.0,16,-99.99,,,0.00,Acu-Link.com,2013-03-06 21:18:00,
2013-03-06 15:34:00,60.3,13.9,30.09,South,180,1.6,-999.0,16,-99.99,,,0.00,Acu-Link.com,2013-03-06 21:34:00,
2013-03-06 15:49:00,60.3,13.9,30.09,South,180,1.6,-999.0,16,-99.99,,,0.00,Acu-Link.com,2013-03-06 21:49:00,
2013-03-06 16:04:00,60.3,13.9,30.07,South,180,1.6,-999.0,16,-99.99,,,0.00,Acu-Link.com,2013-03-06 22:04:00,
2013-03-06 16:19:00,60.3,13.9,30.06,South,180,1.6,-999.0,16,-99.99,,,0.00,Acu-Link.com,2013-03-06 22:19:00,
2013-03-06 16:34:00,60.3,19.0,30.06,South,180,2.7,-999.0,20,-99.99,,,0.00,Acu-Link.com,2013-03-06 22:34:00,
2013-03-06 16:50:00,60.4,20.3,30.05,ESE,112,0.0,-999.0,21,-99.99,,,0.00,Acu-Link.com,2013-03-06 22:50:00,
2013-03-06 17:05:00,60.4,20.3,30.06,SSE,157,1.1,-999.0,21,-99.99,,,0.00,Acu-Link.com,2013-03-06 23:05:00,
2013-03-06 17:20:00,60.4,20.3,30.05,SSE,157,1.1,-999.0,21,-99.99,,,0.00,Acu-Link.com,2013-03-06 23:20:00,
2013-03-06 17:35:00,60.4,20.3,30.06,SSE,157,1.1,-999.0,21,-99.99,,,0.00,Acu-Link.com,2013-03-06 23:35:00,
2013-03-06 17:51:00,58.5,19.8,30.05,WSW,247,1.1,-999.0,22,-99.99,,,0.00,Acu-Link.com,2013-03-06 23:51:00,
2013-03-06 18:06:00,57.7,20.2,30.05,NE,45,0.0,-999.0,23,-99.99,,,0.00,Acu-Link.com,2013-03-07 00:06:00,
2013-03-06 18:21:00,56.8,20.4,30.05,NNE,22,1.6,-999.0,24,-99.99,,,0.00,Acu-Link.com,2013-03-07 00:21:00,
2013-03-06 18:36:00,56.3,20.0,30.05,WSW,247,0.0,-999.0,24,-99.99,,,0.00,Acu-Link.com,2013-03-07 00:36:00,
2013-03-06 18:51:00,55.6,19.4,30.05,NW,315,0.0,-999.0,24,-99.99,,,0.00,Acu-Link.com,2013-03-07 00:51:00,
2013-03-06 19:07:00,55.0,20.8,30.05,NNW,337,0.0,-999.0,26,-99.99,,,0.00,Acu-Link.com,2013-03-07 01:07:00,
2013-03-06 19:22:00,54.7,21.4,30.06,NW,315,0.0,-999.0,27,-99.99,,,0.00,Acu-Link.com,2013-03-07 01:22:00,
2013-03-06 19:37:00,54.0,21.6,30.05,NNW,337,0.0,-999.0,28,-99.99,,,0.00,Acu-Link.com,2013-03-07 01:37:00,
2013-03-06 19:52:00,53.2,21.0,30.06,SE,135,0.0,-999.0,28,-99.99,,,0.00,Acu-Link.com,2013-03-07 01:52:00,
2013-03-06 20:07:00,52.5,19.5,30.04,West,270,0.0,-999.0,27,-99.99,,,0.00,Acu-Link.com,2013-03-07 02:07:00,
2013-03-06 20:23:00,51.6,21.2,30.04,NNE,22,0.0,-999.0,30,-99.99,,,0.00,Acu-Link.com,2013-03-07 02:23:00,
2013-03-06 20:38:00,50.4,22.4,30.04,North,0,0.0,-999.0,33,-99.99,,,0.00,Acu-Link.com,2013-03-07 02:38:00,
2013-03-06 20:53:00,50.7,21.2,30.04,West,270,0.0,-999.0,31,-99.99,,,0.00,Acu-Link.com,2013-03-07 02:53:00,
2013-03-06 21:08:00,50.9,21.4,30.03,WNW,292,1.6,-999.0,31,-99.99,,,0.00,Acu-Link.com,2013-03-07 03:08:00,
2013-03-06 21:23:00,50.5,21.8,30.03,NE,45,0.0,-999.0,32,-99.99,,,0.00,Acu-Link.com,2013-03-07 03:23:00,
2013-03-06 21:39:00,50.4,22.4,30.03,West,270,0.0,-999.0,33,-99.99,,,0.00,Acu-Link.com,2013-03-07 03:39:00,
2013-03-06 21:54:00,49.8,21.9,30.03,NNE,22,1.6,-999.0,33,-99.99,,,0.00,Acu-Link.com,2013-03-07 03:54:00,
2013-03-06 22:09:00,48.6,22.2,30.03,NNE,22,0.0,-999.0,35,-99.99,,,0.00,Acu-Link.com,2013-03-07 04:09:00,
2013-03-06 22:24:00,47.5,22.5,30.03,SE,135,0.0,-999.0,37,-99.99,,,0.00,Acu-Link.com,2013-03-07 04:24:00,
2013-03-06 22:39:00,46.8,22.5,30.02,ESE,112,0.0,-999.0,38,-99.99,,,0.00,Acu-Link.com,2013-03-07 04:39:00,
2013-03-06 22:55:00,45.9,22.3,30.03,NE,45,0.0,-999.0,39,-99.99,,,0.00,Acu-Link.com,2013-03-07 04:55:00,
2013-03-06 23:10:00,45.0,21.5,30.02,East,90,0.0,-999.0,39,-99.99,,,0.00,Acu-Link.com,2013-03-07 05:10:00,
2013-03-06 23:25:00,44.2,22.0,30.02,SE,135,0.0,-999.0,41,-99.99,,,0.00,Acu-Link.com,2013-03-07 05:25:00,
2013-03-06 23:40:00,43.7,21.6,30.02,SSE,157,0.0,-999.0,41,-99.99,,,0.00,Acu-Link.com,2013-03-07 05:40:00,
2013-03-06 23:56:00,42.8,22.9,30.02,SSE,157,0.0,-999.0,45,-99.99,,,0.00,Acu-Link.com,2013-03-07 05:56:00,